Paul R Tregurtha — WYR4481 — position and weather

sailwx.info

Track history (hours):
 
Tides and Currents Weather Stations Pressure Air Temp Water Temp Dewpoint Dewpoint Depression Visibility Wind Speed Wind Dir Waves Ship Positions

Paul R Tregurtha

Owner: THE INTERLAKE STEAMSHIP COMPANY, Middleburg Heights, OH. More information available from US FCC via Universal Licensing System and Coast Guard Vessel Documentation Center.

Last reported at 2015-May-29 13:00 UTC. Time now 2015-May-29 18:02 UTC.
Position N 47°30' W 087°12'.

Length 308 m; draft 8.5 m.

Type: Cargo ship. MMSI: 366904940.

Wind from 190 at 20 knots

Barometer 1012.2 mb
Air temperature 6.8 ° C
Water temperature 3.1 ° C

Date/timePositionNaut miles runAvg speedWind from/ knotsBaromVisibWave heightAir tempDewpointWater temp
2015-May-29 13:00N 47°30' W 087°12'1413.5 190 / 201012.2 6.8 3.1
2015-May-29 12:00N 47°36' W 087°30'1212.1 190 / 201012.5 7.3 3.1
2015-May-29 11:00N 47°36' W 087°48'1212.1 180 / 151012.5 10.4 3.1
2015-May-29 10:00N 47°36' W 088°06'1212.1 190 / 171012.5 12.3 3.0
2015-May-29 09:00N 47°36' W 088°24'1413.5 180 / 161012.5 11.0 3.0
2015-May-29 08:00N 47°30' W 088°42'1212.2 190 / 131012.9 6.2 3.1
2015-May-29 07:00N 47°30' W 089°00'1413.6 200 / 111013.5 4.8 3.6
2015-May-29 06:00N 47°24' W 089°18'1212.2 190 / 101013.9 3.8 3.5
2015-May-29 05:00N 47°24' W 089°36'1212.2 160 / 51014.6 3.7 3.5
2015-May-29 04:00N 47°24' W 089°54'1413.6 040 / 31014.9 3.6 3.4
2015-May-29 03:00N 47°18' W 090°12'1212.2 080 / 71014.9 4.1 3.6
2015-May-29 02:00N 47°18' W 090°30'1413.6 040 / 61014.9 1.0 3.8 3.9
2015-May-29 01:00N 47°12' W 090°48'1413.6 030 / 71014.9 3.8 4.7
2015-May-29 00:00N 47°06' W 091°06'1010.1 040 / 91015.2 3.7 4.4
2015-May-28 23:00N 47°00' W 091°18'1114.4 040 / 121015.6 3.8 4.4
2015-May-28 22:13N 46°57' W 091°34'315.7
2015-May-28 22:00N 46°54' W 091°36'612.9 060 / 121016.9 3.9 4.3
2015-May-28 21:34N 46°53' W 091°44'915.3
2015-May-28 21:00N 46°48' W 091°54'4 9.1 060 / 131017.3 4.5 5.7
2015-May-28 20:34N 46°48' W 091°60'4 7.5
2015-May-28 20:00N 46°48' W 092°06'3 8.0 070 / 151018.3 5.9 14.7
2015-May-28 19:33N 46°45' W 092°07'0 0.0
2015-May-28 18:23N 46°45' W 092°07'3 6.8
2015-May-28 18:00N 46°42' W 092°06'3 5.1 060 / 181020.0 5.6 17.5
2015-May-28 17:29N 46°45' W 092°07'3 5.5
2015-May-28 17:00N 46°42' W 092°06'3 5.1 070 / 211020.3 5.6 15.9
2015-May-28 16:29N 46°45' W 092°07'3 5.4
2015-May-28 16:00N 46°42' W 092°06'3 5.6 310 / 381020.3 5.1 16.0
2015-May-28 15:31N 46°45' W 092°07'3 5.0
2015-May-28 15:00N 46°42' W 092°06'3 5.1 090 / 181020.7 5.9 15.8
2015-May-28 14:29N 46°45' W 092°07'3 5.5
2015-May-28 14:00N 46°42' W 092°06'3 5.6 070 / 201020.7 6.7 15.9
2015-May-28 13:31N 46°45' W 092°07'3 5.0
2015-May-28 13:00N 46°42' W 092°06'3 5.6 070 / 221020.7 6.4 15.9
2015-May-28 12:31N 46°45' W 092°07'3 5.0
2015-May-28 12:00N 46°42' W 092°06'3 5.6 060 / 211021.0 6.3 16.6
2015-May-28 11:31N 46°45' W 092°07'3 5.0
2015-May-28 11:00N 46°42' W 092°06'3 5.6 060 / 191021.0 6.6 15.2
2015-May-28 10:31N 46°45' W 092°07'3 5.0
2015-May-28 10:00N 46°42' W 092°06'3 5.6 100 / 201020.3 7.4 14.8
2015-May-28 09:31N 46°45' W 092°07'3 5.0
2015-May-28 09:00N 46°42' W 092°06'3 6.2 130 / 191019.6 9.0 14.7
2015-May-28 08:34N 46°45' W 092°07'3 6.0
2015-May-28 08:00N 46°48' W 092°06'1 3.2 060 / 151019.6 10.7 13.9
2015-May-28 07:34N 46°47' W 092°05'3 5.7
2015-May-28 07:00N 46°48' W 092°00'921.4 050 / 171019.3 10.5 5.6
2015-May-28 06:33N 46°52' W 091°47'814.5
2015-May-28 06:00N 46°54' W 091°36'612.6 040 / 191018.6 8.6 4.0
2015-May-28 05:32N 46°56' W 091°28'814.6
2015-May-28 05:00N 47°00' W 091°18'1413.7 050 / 151018.3 7.2 4.1
2015-May-28 04:00N 47°06' W 091°00'1212.3 040 / 91017.6 6.8 4.2
2015-May-28 03:00N 47°06' W 090°42'1413.6 090 / 201016.6 11.8 5.1
2015-May-28 02:00N 47°12' W 090°24'1212.2 060 / 141015.910.8 0.510.3 3.6
2015-May-28 01:00N 47°12' W 090°06'2914.6 020 / 101014.6 8.7 3.8
2015-May-27 23:00N 47°18' W 089°24'2512.6 270 / 71012.2 13.7 3.5
2015-May-27 21:00N 47°24' W 088°48'2512.5 200 / 71011.5 9.4 3.3
2015-May-27 19:00N 47°30' W 088°12'1616.2 240 / 151010.2 7.6 2.9
2015-May-27 18:00N 47°30' W 087°48'1212.2 260 / 201008.8 9.7 2.9
2015-May-27 17:00N 47°30' W 087°30'1413.6 210 / 81009.1 10.9 3.1
2015-May-27 16:00N 47°24' W 087°12'9313.3 260 / 81008.8 0.5 0.5 5.9 3.0
2015-May-27 09:00N 46°48' W 085°06'1010.2 180 / 151003.7 15.6 2.8
2015-May-27 08:00N 46°42' W 084°54'1514.6 170 / 151004.7 13.8 3.1
2015-May-27 07:00N 46°30' W 084°42'8 8.3 140 / 121005.1 11.3 4.3
2015-May-27 06:00N 46°30' W 084°30'4 4.1 110 / 41005.8 15.0 5.1
2015-May-27 05:00N 46°30' W 084°24'4 4.1 120 / 51006.8 16.2 5.8
2015-May-27 04:00N 46°30' W 084°18'7 7.3 020 / 41006.9 13.8 5.9
2015-May-27 03:00N 46°24' W 084°12'7 7.3 120 / 51007.6 14.8 5.9
2015-May-27 02:00N 46°18' W 084°06'1010.5 180 / 61008.3 16.3 6.8
2015-May-27 01:04N 46°09' W 084°02'339.6
2015-May-27 01:00N 46°06' W 084°00'3 6.0 110 / 81007.9 15.1 8.8
2015-May-27 00:32N 46°03' W 083°59'5 8.6
2015-May-27 00:00N 46°00' W 083°54'715.8 200 / 51008.6 12.0 9.2
2015-May-26 23:32N 45°53' W 083°51'1313.7
2015-May-26 22:33N 45°42' W 083°40'2113.6
2015-May-26 21:00N 45°24' W 083°24'1514.7 150 / 211010.3 13.1 3.6
2015-May-26 20:00N 45°12' W 083°12'1312.7 160 / 211012.0 14.9 3.8
2015-May-26 19:00N 45°00' W 083°06'1514.7 150 / 201013.3 12.7 4.6
2015-May-26 18:00N 44°48' W 082°54'6412.7 180 / 181014.7 13.8 4.1
2015-May-26 13:00N 43°48' W 082°24'1212.0 180 / 141017.1 15.9 5.2
2015-May-26 12:00N 43°36' W 082°24'3015.0 190 / 161017.4 17.8 6.4
2015-May-26 10:00N 43°06' W 082°24'6 6.0 200 / 121016.7 18.6 11.0
2015-May-26 09:00N 43°00' W 082°24'1312.8 220 / 121017.1 20.8 10.5
2015-May-26 08:00N 42°48' W 082°30'0 0.0 200 / 71017.1 19.6 11.0
2015-May-26 07:00N 42°48' W 082°30'0 0.0 260 / 81017.1 21.7 12.7
2015-May-26 06:00N 42°48' W 082°30'0 0.0 250 / 81017.1 22.3 12.6
2015-May-26 05:00N 42°48' W 082°30'0 0.0 250 / 91017.1 21.4 12.7
2015-May-26 04:00N 42°48' W 082°30'0 0.0 250 / 61016.7 22.7 12.8
2015-May-26 03:00N 42°48' W 082°30'0 0.0 300 / 21016.4 22.6 12.7
2015-May-26 02:00N 42°48' W 082°30'0 0.0 250 / 81015.4 23.9 12.7
2015-May-26 00:00N 42°48' W 082°30'0 0.0 250 / 201013.7 22.5 12.6
2015-May-25 23:00N 42°48' W 082°30'0 0.0 240 / 151013.7 24.8 12.7
2015-May-25 22:00N 42°48' W 082°30'0 0.0 260 / 231013.7 24.0 12.4
2015-May-25 21:00N 42°48' W 082°30'0 0.0 260 / 221014.0 25.8 12.4
2015-May-25 20:00N 42°48' W 082°30'0 0.0 250 / 221014.0 24.6 12.4
2015-May-25 19:00N 42°48' W 082°30'0 0.0 250 / 191014.7 24.6 12.3
2015-May-25 18:00N 42°48' W 082°30'0 0.0 220 / 141015.4 25.1 12.0
2015-May-25 17:00N 42°48' W 082°30'6 6.0 220 / 171015.7 24.4 10.5
2015-May-25 16:00N 42°54' W 082°30'1312.8 190 / 121015.4 22.0 10.2
2015-May-25 15:00N 43°06' W 082°24'1212.0 210 / 141015.4 21.5 9.9
2015-May-25 14:00N 43°18' W 082°24'6 6.0 200 / 111015.4 18.6 8.8
2015-May-25 13:00N 43°24' W 082°24'18 9.0 180 / 171015.4 16.3 6.9
2015-May-25 11:00N 43°42' W 082°24'1212.0 190 / 101015.0 9.6 4.3
2015-May-25 10:00N 43°54' W 082°24'7 7.4 130 / 131015.0 9.3 3.7
2015-May-25 09:00N 44°00' W 082°30'89 9.9 100 / 151015.7 8.8 3.5
2015-May-25 00:00N 45°24' W 083°12'39 9.8 320 / 91018.8 7.3 2.9
2015-May-24 20:00N 45°54' W 083°48'4 9.3 290 / 21019.4 13.7 5.4
2015-May-24 19:31N 45°56' W 083°53'4 7.2
2015-May-24 19:00N 46°00' W 083°54'614.0 240 / 101020.1 21.0 8.9
2015-May-24 18:33N 46°04' W 084°01'2 3.2
2015-May-24 18:00N 46°06' W 084°00'818.5 260 / 91020.4 21.6 7.4
2015-May-24 17:34N 46°12' W 084°08'3 5.2
2015-May-24 17:00N 46°12' W 084°12'6 6.0 210 / 61020.8 20.8 5.9
2015-May-24 16:00N 46°18' W 084°12'1312.7 260 / 101020.4 22.0 5.4
2015-May-24 15:00N 46°30' W 084°18'4 4.1 210 / 21020.8 17.3 4.9
2015-May-24 14:00N 46°30' W 084°24'2 2.0 040 / 11022.0 14.7 4.7
2015-May-24 13:11N 46°30' W 084°22'2 9.0
2015-May-24 13:00N 46°30' W 084°24'0 0.7 060 / 31021.7 10.6 4.5
2015-May-24 12:34N 46°30' W 084°24'4 7.8
2015-May-24 12:00N 46°30' W 084°30'3 8.0 040 / 31022.0 8.6 3.6
2015-May-24 11:34N 46°27' W 084°33'3 5.8
2015-May-24 11:00N 46°30' W 084°36'613.4 130 / 61022.0 7.1 3.3
2015-May-24 10:34N 46°34' W 084°42'5 8.1
2015-May-24 10:00N 46°36' W 084°48'613.9 200 / 101021.0 9.2 2.3
2015-May-24 09:34N 46°42' W 084°50'711.9
2015-May-24 09:00N 46°48' W 084°54'1010.2 140 / 51020.7 7.8 2.4
2015-May-24 08:00N 46°54' W 085°06'83 9.2 220 / 51020.3 8.9 2.2
2015-May-23 23:00N 47°24' W 087°00'1010.1 260 / 111019.3 11.5 2.9
2015-May-23 22:00N 47°30' W 087°12'1212.2 250 / 181019.0 12.8 2.9
2015-May-23 21:00N 47°30' W 087°30'1010.1 260 / 171019.3 15.6 2.8
2015-May-23 20:00N 47°36' W 087°42'1212.1 260 / 221020.0 14.7 2.9
2015-May-23 19:00N 47°36' W 088°00'8 8.1 240 / 261020.310.8 1.013.2 2.9
2015-May-23 18:00N 47°36' W 088°12'1413.5 220 / 221020.7 9.8 2.7
2015-May-23 17:00N 47°30' W 088°30'1212.2 230 / 161021.3 6.9 2.8
2015-May-23 16:00N 47°30' W 088°48'2914.5 240 / 181021.3 9.8 3.0
2015-May-23 14:00N 47°24' W 089°30'1212.2 230 / 171022.4 9.3 3.3
2015-May-23 13:00N 47°24' W 089°48'1413.6 220 / 141022.4 6.9 3.4
2015-May-23 12:00N 47°18' W 090°06'1212.2 240 / 141022.4 9.1 3.4
2015-May-23 11:00N 47°18' W 090°24'1212.2 230 / 141022.4 6.5 3.5
2015-May-23 10:00N 47°18' W 090°42'1413.6 220 / 151022.4 6.7 4.1
2015-May-23 09:00N 47°12' W 091°00'713.6 230 / 131022.4 6.0 4.2
2015-May-23 08:31N 47°07' W 091°07'4 7.5
2015-May-23 08:00N 47°06' W 091°12'1116.7 220 / 111022.0 3.8 4.0
2015-May-23 07:20N 47°01' W 091°26'3 8.1
2015-May-23 07:00N 47°00' W 091°30'716.2 200 / 81022.0 3.5 4.0
2015-May-23 06:33N 46°56' W 091°39'711.9
2015-May-23 06:00N 46°54' W 091°48'613.5 250 / 41022.4 5.4 4.2
2015-May-23 05:33N 46°50' W 091°55'4 7.6
2015-May-23 05:00N 46°48' W 092°00'510.4 290 / 21022.7 7.0 8.4
2015-May-23 04:33N 46°46' W 092°06'1 1.3
2015-May-23 03:33N 46°45' W 092°07'3 4.7
2015-May-23 03:00N 46°42' W 092°06'3 4.9 090 / 41023.0 6.8 15.1
2015-May-23 02:27N 46°45' W 092°07'3 5.8
2015-May-23 02:00N 46°42' W 092°06'3 5.4 040 / 41022.4 6.9 14.8
2015-May-23 01:30N 46°45' W 092°07'3 5.2
2015-May-23 01:00N 46°42' W 092°06'3 5.3 060 / 81022.4 6.8 13.4
2015-May-23 00:30N 46°45' W 092°07'3 5.2
2015-May-23 00:00N 46°42' W 092°06'3 5.4 090 / 71022.4 7.5 13.3
2015-May-22 23:30N 46°45' W 092°07'3 5.2
2015-May-22 23:00N 46°42' W 092°06'3 3.8 070 / 81022.7 7.0 13.3
2015-May-22 22:18N 46°45' W 092°07'3 8.6
2015-May-22 22:00N 46°42' W 092°06'3 6.0 060 / 101022.7 7.3 13.8
2015-May-22 21:33N 46°45' W 092°07'3 4.8
2015-May-22 21:00N 46°42' W 092°06'3 6.0 040 / 101022.7 7.6 14.0
2015-May-22 20:33N 46°45' W 092°07'3 4.8
2015-May-22 20:00N 46°42' W 092°06'3 6.0 170 / 81023.0 8.2 13.5
2015-May-22 19:33N 46°45' W 092°07'3 4.8
2015-May-22 19:00N 46°42' W 092°06'3 7.0 080 / 81023.0 7.7 13.3
2015-May-22 18:33N 46°45' W 092°06'3 5.2
2015-May-22 18:00N 46°48' W 092°06'2 5.4 080 / 81023.7 9.5 10.6
2015-May-22 17:32N 46°46' W 092°06'2 4.5
2015-May-22 17:00N 46°48' W 092°06'2 5.6 080 / 41023.4 8.4 10.4
2015-May-22 16:33N 46°46' W 092°06'2 4.3
2015-May-22 16:00N 46°48' W 092°06'2 5.6 060 / 41023.7 8.3 10.6
2015-May-22 15:33N 46°46' W 092°06'2 4.3
2015-May-22 15:00N 46°48' W 092°06'2 5.6 040 / 41024.4 7.4 10.5
2015-May-22 14:33N 46°46' W 092°06'2 4.3
2015-May-22 14:00N 46°48' W 092°06'2 5.6 040 / 41024.4 6.8 10.7
2015-May-22 13:33N 46°46' W 092°06'2 4.3
2015-May-22 13:00N 46°48' W 092°06'2 5.6 090 / 51024.0 6.7 10.1
2015-May-22 12:33N 46°46' W 092°06'2 4.3
2015-May-22 12:00N 46°48' W 092°06'2 5.6 060 / 61023.0 8.0 9.7
2015-May-22 11:33N 46°46' W 092°06'2 4.3
2015-May-22 11:00N 46°48' W 092°06'614.4 330 / 31022.4 8.7 6.7
2015-May-22 10:33N 46°49' W 091°57'813.7
2015-May-22 10:00N 46°54' W 091°48'714.8 1022.0 4.3 3.3
2015-May-22 09:33N 46°54' W 091°38'610.3
2015-May-22 09:00N 46°54' W 091°30'818.4 340 / 51021.0 6.8 3.6
2015-May-22 08:33N 46°58' W 091°20'610.3
2015-May-22 08:00N 47°00' W 091°12'1413.7 060 / 51020.3 8.1 3.5
2015-May-22 07:00N 47°06' W 090°54'1212.3 080 / 41020.0 6.5 4.8
2015-May-22 06:00N 47°06' W 090°36'1717.4 070 / 61019.3 7.8 3.5
2015-May-22 05:00N 47°12' W 090°12'1212.2 110 / 71019.0 5.1 3.7
2015-May-22 04:00N 47°12' W 089°54'2512.6 110 / 81018.6 5.5 3.3
2015-May-22 02:00N 47°18' W 089°18'1413.6 100 / 101017.6 4.9 3.2
2015-May-22 01:00N 47°24' W 089°00'1616.2 100 / 91017.6 5.7 3.2
2015-May-22 00:00N 47°24' W 088°36'1413.6 090 / 71017.3 4.4 2.8
2015-May-21 23:00N 47°30' W 088°18'1212.2 010 / 31017.3 8.1 2.8
2015-May-21 22:00N 47°30' W 088°00'1212.2 310 / 91016.6 7.6 2.8
2015-May-21 21:00N 47°30' W 087°42'1413.6 330 / 71016.3 6.3 2.9
2015-May-21 20:00N 47°24' W 087°24'1413.6 300 / 111015.2 5.4 2.8
2015-May-21 19:00N 47°18' W 087°06'7712.9 290 / 111015.2 4.1 2.8
2015-May-21 13:00N 46°54' W 085°18'919.8 290 / 141011.2 3.8 3.0
2015-May-21 12:32N 46°50' W 085°06'5 8.4
2015-May-21 12:00N 46°48' W 085°00'817.6 230 / 91011.5 7.8 2.1
2015-May-21 11:33N 46°43' W 084°52'712.6
2015-May-21 11:00N 46°36' W 084°48'614.9 220 / 111012.2 4.9 2.1
2015-May-21 10:33N 46°32' W 084°40'4 6.6
2015-May-21 10:00N 46°30' W 084°36'711.5 160 / 61012.9 3.9 3.4
2015-May-21 09:25N 46°29' W 084°26'2 4.5
2015-May-21 09:00N 46°30' W 084°24'4 4.1 250 / 21013.5 4.0 4.6
2015-May-21 08:00N 46°30' W 084°18'0 0.0 270 / 31014.0 5.0 4.9
2015-May-21 07:00N 46°30' W 084°18'0 0.0 230 / 31014.3 5.0 4.7
2015-May-21 06:00N 46°30' W 084°18'7 7.3 220 / 21015.0 5.0 4.6
2015-May-21 05:00N 46°24' W 084°12'7 7.3 230 / 31015.4 6.2 5.0
2015-May-21 04:00N 46°18' W 084°06'6 6.0 270 / 101015.7 7.5 6.0
2015-May-21 03:00N 46°12' W 084°06'914.0 240 / 81016.4 8.0 7.3
2015-May-21 02:21N 46°04' W 084°00'616.3
2015-May-21 02:00N 46°00' W 083°54'3 7.2 250 / 81016.4 9.1 7.7
2015-May-21 01:33N 45°57' W 083°54'1313.3
2015-May-21 00:32N 45°45' W 083°44'3312.8
2015-May-20 22:00N 45°18' W 083°18'1514.7 170 / 71019.1 6.1 3.7
2015-May-20 21:00N 45°06' W 083°06'7612.7 200 / 101019.8 5.3 4.8
2015-May-20 15:00N 43°54' W 082°30'1212.0 330 / 61022.527.0 1.0 4.4 5.8
2015-May-20 14:00N 43°42' W 082°30'1212.0 340 / 91022.8 4.3 6.5
2015-May-20 13:00N 43°30' W 082°30'1312.8 340 / 91022.1 4.2 7.2
2015-May-20 12:00N 43°18' W 082°24'1212.0 310 / 81022.1 3.7 8.1
2015-May-20 11:00N 43°06' W 082°24'1312.8 340 / 121022.1 4.4 10.3
2015-May-20 10:00N 42°54' W 082°30'6 6.0 340 / 81021.5 4.2 9.3
2015-May-20 09:00N 42°48' W 082°30'1212.0 330 / 101021.5 4.3 9.2
2015-May-20 08:00N 42°36' W 082°30'1110.7 340 / 91021.5 4.8 9.5
2015-May-20 07:00N 42°30' W 082°42'1110.7 340 / 181021.3 5.1 10.3
2015-May-20 06:00N 42°24' W 082°54'1110.7 330 / 121020.9 5.7 12.3
2015-May-20 05:00N 42°18' W 083°06'6 6.0 340 / 111021.3 6.5 12.8
2015-May-20 04:00N 42°12' W 083°06'20 5.0 350 / 111020.3 8.6 13.2
2015-May-20 00:00N 41°54' W 083°18'0 0.0 1019.8 12.4 15.9
2015-May-19 23:00N 41°54' W 083°18'0 0.0 300 / 51019.5 12.5 16.6
2015-May-19 22:00N 41°54' W 083°18'0 0.0 1019.1 12.2 15.9
2015-May-19 21:00N 41°54' W 083°18'0 0.0 010 / 101019.8 12.5 15.9
2015-May-19 20:00N 41°54' W 083°18'0 0.0 010 / 31019.1 13.0 15.8
2015-May-19 19:00N 41°54' W 083°18'0 0.0 1019.5 12.1 15.8
2015-May-19 18:00N 41°54' W 083°18'0 0.0 1019.1 11.7 15.8
2015-May-19 17:00N 41°54' W 083°18'0 0.0 350 / 61019.5 11.6 15.9
2015-May-19 16:00N 41°54' W 083°18'0 0.0 1019.8 11.1 15.8
2015-May-19 15:00N 41°54' W 083°18'0 0.0 360 / 111019.1 11.1 15.9
2015-May-19 14:00N 41°54' W 083°18'0 0.0 010 / 71018.8 11.2 15.9
2015-May-19 13:00N 41°54' W 083°18'   1018.1 11.0 15.9
Track history (hours):
 
Tides and Currents Weather Stations Pressure Air Temp Water Temp Dewpoint Dewpoint Depression Visibility Wind Speed Wind Dir Waves Ship Positions

Paul R Tregurtha

Owner: THE INTERLAKE STEAMSHIP COMPANY, Middleburg Heights, OH. More information available from US FCC via Universal Licensing System and Coast Guard Vessel Documentation Center.

Last reported at 2015-May-29 13:00 UTC. Time now 2015-May-29 18:02 UTC.
Position N 47°30' W 087°12'.

Length 308 m; draft 8.5 m.

Type: Cargo ship. MMSI: 366904940.

Wind from 190 at 20 knots

Barometer 1012.2 mb
Air temperature 6.8 ° C
Water temperature 3.1 ° C

Date/timePositionNaut miles runAvg speedWind from/ knotsBaromVisibWave heightAir tempDewpointWater temp
2015-May-29 13:00N 47°30' W 087°12'1413.5 190 / 201012.2 6.8 3.1
2015-May-29 12:00N 47°36' W 087°30'1212.1 190 / 201012.5 7.3 3.1
2015-May-29 11:00N 47°36' W 087°48'1212.1 180 / 151012.5 10.4 3.1
2015-May-29 10:00N 47°36' W 088°06'1212.1 190 / 171012.5 12.3 3.0
2015-May-29 09:00N 47°36' W 088°24'1413.5 180 / 161012.5 11.0 3.0
2015-May-29 08:00N 47°30' W 088°42'1212.2 190 / 131012.9 6.2 3.1
2015-May-29 07:00N 47°30' W 089°00'1413.6 200 / 111013.5 4.8 3.6
2015-May-29 06:00N 47°24' W 089°18'1212.2 190 / 101013.9 3.8 3.5
2015-May-29 05:00N 47°24' W 089°36'1212.2 160 / 51014.6 3.7 3.5
2015-May-29 04:00N 47°24' W 089°54'1413.6 040 / 31014.9 3.6 3.4
2015-May-29 03:00N 47°18' W 090°12'1212.2 080 / 71014.9 4.1 3.6
2015-May-29 02:00N 47°18' W 090°30'1413.6 040 / 61014.9 1.0 3.8 3.9
2015-May-29 01:00N 47°12' W 090°48'1413.6 030 / 71014.9 3.8 4.7
2015-May-29 00:00N 47°06' W 091°06'1010.1 040 / 91015.2 3.7 4.4
2015-May-28 23:00N 47°00' W 091°18'1114.4 040 / 121015.6 3.8 4.4
2015-May-28 22:13N 46°57' W 091°34'315.7
2015-May-28 22:00N 46°54' W 091°36'612.9 060 / 121016.9 3.9 4.3
2015-May-28 21:34N 46°53' W 091°44'915.3
2015-May-28 21:00N 46°48' W 091°54'4 9.1 060 / 131017.3 4.5 5.7
2015-May-28 20:34N 46°48' W 091°60'4 7.5
2015-May-28 20:00N 46°48' W 092°06'3 8.0 070 / 151018.3 5.9 14.7
2015-May-28 19:33N 46°45' W 092°07'0 0.0
2015-May-28 18:23N 46°45' W 092°07'3 6.8
2015-May-28 18:00N 46°42' W 092°06'3 5.1 060 / 181020.0 5.6 17.5
2015-May-28 17:29N 46°45' W 092°07'3 5.5
2015-May-28 17:00N 46°42' W 092°06'3 5.1 070 / 211020.3 5.6 15.9
2015-May-28 16:29N 46°45' W 092°07'3 5.4
2015-May-28 16:00N 46°42' W 092°06'3 5.6 310 / 381020.3 5.1 16.0
2015-May-28 15:31N 46°45' W 092°07'3 5.0
2015-May-28 15:00N 46°42' W 092°06'3 5.1 090 / 181020.7 5.9 15.8
2015-May-28 14:29N 46°45' W 092°07'3 5.5
2015-May-28 14:00N 46°42' W 092°06'3 5.6 070 / 201020.7 6.7 15.9
2015-May-28 13:31N 46°45' W 092°07'3 5.0
2015-May-28 13:00N 46°42' W 092°06'3 5.6 070 / 221020.7 6.4 15.9
2015-May-28 12:31N 46°45' W 092°07'3 5.0
2015-May-28 12:00N 46°42' W 092°06'3 5.6 060 / 211021.0 6.3 16.6
2015-May-28 11:31N 46°45' W 092°07'3 5.0
2015-May-28 11:00N 46°42' W 092°06'3 5.6 060 / 191021.0 6.6 15.2
2015-May-28 10:31N 46°45' W 092°07'3 5.0
2015-May-28 10:00N 46°42' W 092°06'3 5.6 100 / 201020.3 7.4 14.8
2015-May-28 09:31N 46°45' W 092°07'3 5.0
2015-May-28 09:00N 46°42' W 092°06'3 6.2 130 / 191019.6 9.0 14.7
2015-May-28 08:34N 46°45' W 092°07'3 6.0
2015-May-28 08:00N 46°48' W 092°06'1 3.2 060 / 151019.6 10.7 13.9
2015-May-28 07:34N 46°47' W 092°05'3 5.7
2015-May-28 07:00N 46°48' W 092°00'921.4 050 / 171019.3 10.5 5.6
2015-May-28 06:33N 46°52' W 091°47'814.5
2015-May-28 06:00N 46°54' W 091°36'612.6 040 / 191018.6 8.6 4.0
2015-May-28 05:32N 46°56' W 091°28'814.6
2015-May-28 05:00N 47°00' W 091°18'1413.7 050 / 151018.3 7.2 4.1
2015-May-28 04:00N 47°06' W 091°00'1212.3 040 / 91017.6 6.8 4.2
2015-May-28 03:00N 47°06' W 090°42'1413.6 090 / 201016.6 11.8 5.1
2015-May-28 02:00N 47°12' W 090°24'1212.2 060 / 141015.910.8 0.510.3 3.6
2015-May-28 01:00N 47°12' W 090°06'2914.6 020 / 101014.6 8.7 3.8
2015-May-27 23:00N 47°18' W 089°24'2512.6 270 / 71012.2 13.7 3.5
2015-May-27 21:00N 47°24' W 088°48'2512.5 200 / 71011.5 9.4 3.3
2015-May-27 19:00N 47°30' W 088°12'1616.2 240 / 151010.2 7.6 2.9
2015-May-27 18:00N 47°30' W 087°48'1212.2 260 / 201008.8 9.7 2.9
2015-May-27 17:00N 47°30' W 087°30'1413.6 210 / 81009.1 10.9 3.1
2015-May-27 16:00N 47°24' W 087°12'9313.3 260 / 81008.8 0.5 0.5 5.9 3.0
2015-May-27 09:00N 46°48' W 085°06'1010.2 180 / 151003.7 15.6 2.8
2015-May-27 08:00N 46°42' W 084°54'1514.6 170 / 151004.7 13.8 3.1
2015-May-27 07:00N 46°30' W 084°42'8 8.3 140 / 121005.1 11.3 4.3
2015-May-27 06:00N 46°30' W 084°30'4 4.1 110 / 41005.8 15.0 5.1
2015-May-27 05:00N 46°30' W 084°24'4 4.1 120 / 51006.8 16.2 5.8
2015-May-27 04:00N 46°30' W 084°18'7 7.3 020 / 41006.9 13.8 5.9
2015-May-27 03:00N 46°24' W 084°12'7 7.3 120 / 51007.6 14.8 5.9
2015-May-27 02:00N 46°18' W 084°06'1010.5 180 / 61008.3 16.3 6.8
2015-May-27 01:04N 46°09' W 084°02'339.6
2015-May-27 01:00N 46°06' W 084°00'3 6.0 110 / 81007.9 15.1 8.8
2015-May-27 00:32N 46°03' W 083°59'5 8.6
2015-May-27 00:00N 46°00' W 083°54'715.8 200 / 51008.6 12.0 9.2
2015-May-26 23:32N 45°53' W 083°51'1313.7
2015-May-26 22:33N 45°42' W 083°40'2113.6
2015-May-26 21:00N 45°24' W 083°24'1514.7 150 / 211010.3 13.1 3.6
2015-May-26 20:00N 45°12' W 083°12'1312.7 160 / 211012.0 14.9 3.8
2015-May-26 19:00N 45°00' W 083°06'1514.7 150 / 201013.3 12.7 4.6
2015-May-26 18:00N 44°48' W 082°54'6412.7 180 / 181014.7 13.8 4.1
2015-May-26 13:00N 43°48' W 082°24'1212.0 180 / 141017.1 15.9 5.2
2015-May-26 12:00N 43°36' W 082°24'3015.0 190 / 161017.4 17.8 6.4
2015-May-26 10:00N 43°06' W 082°24'6 6.0 200 / 121016.7 18.6 11.0
2015-May-26 09:00N 43°00' W 082°24'1312.8 220 / 121017.1 20.8 10.5
2015-May-26 08:00N 42°48' W 082°30'0 0.0 200 / 71017.1 19.6 11.0
2015-May-26 07:00N 42°48' W 082°30'0 0.0 260 / 81017.1 21.7 12.7
2015-May-26 06:00N 42°48' W 082°30'0 0.0 250 / 81017.1 22.3 12.6
2015-May-26 05:00N 42°48' W 082°30'0 0.0 250 / 91017.1 21.4 12.7
2015-May-26 04:00N 42°48' W 082°30'0 0.0 250 / 61016.7 22.7 12.8
2015-May-26 03:00N 42°48' W 082°30'0 0.0 300 / 21016.4 22.6 12.7
2015-May-26 02:00N 42°48' W 082°30'0 0.0 250 / 81015.4 23.9 12.7
2015-May-26 00:00N 42°48' W 082°30'0 0.0 250 / 201013.7 22.5 12.6
2015-May-25 23:00N 42°48' W 082°30'0 0.0 240 / 151013.7 24.8 12.7
2015-May-25 22:00N 42°48' W 082°30'0 0.0 260 / 231013.7 24.0 12.4
2015-May-25 21:00N 42°48' W 082°30'0 0.0 260 / 221014.0 25.8 12.4
2015-May-25 20:00N 42°48' W 082°30'0 0.0 250 / 221014.0 24.6 12.4
2015-May-25 19:00N 42°48' W 082°30'0 0.0 250 / 191014.7 24.6 12.3
2015-May-25 18:00N 42°48' W 082°30'0 0.0 220 / 141015.4 25.1 12.0
2015-May-25 17:00N 42°48' W 082°30'6 6.0 220 / 171015.7 24.4 10.5
2015-May-25 16:00N 42°54' W 082°30'1312.8 190 / 121015.4 22.0 10.2
2015-May-25 15:00N 43°06' W 082°24'1212.0 210 / 141015.4 21.5 9.9
2015-May-25 14:00N 43°18' W 082°24'6 6.0 200 / 111015.4 18.6 8.8
2015-May-25 13:00N 43°24' W 082°24'18 9.0 180 / 171015.4 16.3 6.9
2015-May-25 11:00N 43°42' W 082°24'1212.0 190 / 101015.0 9.6 4.3
2015-May-25 10:00N 43°54' W 082°24'7 7.4 130 / 131015.0 9.3 3.7
2015-May-25 09:00N 44°00' W 082°30'89 9.9 100 / 151015.7 8.8 3.5
2015-May-25 00:00N 45°24' W 083°12'39 9.8 320 / 91018.8 7.3 2.9
2015-May-24 20:00N 45°54' W 083°48'4 9.3 290 / 21019.4 13.7 5.4
2015-May-24 19:31N 45°56' W 083°53'4 7.2
2015-May-24 19:00N 46°00' W 083°54'614.0 240 / 101020.1 21.0 8.9
2015-May-24 18:33N 46°04' W 084°01'2 3.2
2015-May-24 18:00N 46°06' W 084°00'818.5 260 / 91020.4 21.6 7.4
2015-May-24 17:34N 46°12' W 084°08'3 5.2
2015-May-24 17:00N 46°12' W 084°12'6 6.0 210 / 61020.8 20.8 5.9
2015-May-24 16:00N 46°18' W 084°12'1312.7 260 / 101020.4 22.0 5.4
2015-May-24 15:00N 46°30' W 084°18'4 4.1 210 / 21020.8 17.3 4.9
2015-May-24 14:00N 46°30' W 084°24'2 2.0 040 / 11022.0 14.7 4.7
2015-May-24 13:11N 46°30' W 084°22'2 9.0
2015-May-24 13:00N 46°30' W 084°24'0 0.7 060 / 31021.7 10.6 4.5
2015-May-24 12:34N 46°30' W 084°24'4 7.8
2015-May-24 12:00N 46°30' W 084°30'3 8.0 040 / 31022.0 8.6 3.6
2015-May-24 11:34N 46°27' W 084°33'3 5.8
2015-May-24 11:00N 46°30' W 084°36'613.4 130 / 61022.0 7.1 3.3
2015-May-24 10:34N 46°34' W 084°42'5 8.1
2015-May-24 10:00N 46°36' W 084°48'613.9 200 / 101021.0 9.2 2.3
2015-May-24 09:34N 46°42' W 084°50'711.9
2015-May-24 09:00N 46°48' W 084°54'1010.2 140 / 51020.7 7.8 2.4
2015-May-24 08:00N 46°54' W 085°06'83 9.2 220 / 51020.3 8.9 2.2
2015-May-23 23:00N 47°24' W 087°00'1010.1 260 / 111019.3 11.5 2.9
2015-May-23 22:00N 47°30' W 087°12'1212.2 250 / 181019.0 12.8 2.9
2015-May-23 21:00N 47°30' W 087°30'1010.1 260 / 171019.3 15.6 2.8
2015-May-23 20:00N 47°36' W 087°42'1212.1 260 / 221020.0 14.7 2.9
2015-May-23 19:00N 47°36' W 088°00'8 8.1 240 / 261020.310.8 1.013.2 2.9
2015-May-23 18:00N 47°36' W 088°12'1413.5 220 / 221020.7 9.8 2.7
2015-May-23 17:00N 47°30' W 088°30'1212.2 230 / 161021.3 6.9 2.8
2015-May-23 16:00N 47°30' W 088°48'2914.5 240 / 181021.3 9.8 3.0
2015-May-23 14:00N 47°24' W 089°30'1212.2 230 / 171022.4 9.3 3.3
2015-May-23 13:00N 47°24' W 089°48'1413.6 220 / 141022.4 6.9 3.4
2015-May-23 12:00N 47°18' W 090°06'1212.2 240 / 141022.4 9.1 3.4
2015-May-23 11:00N 47°18' W 090°24'1212.2 230 / 141022.4 6.5 3.5
2015-May-23 10:00N 47°18' W 090°42'1413.6 220 / 151022.4 6.7 4.1
2015-May-23 09:00N 47°12' W 091°00'713.6 230 / 131022.4 6.0 4.2
2015-May-23 08:31N 47°07' W 091°07'4 7.5
2015-May-23 08:00N 47°06' W 091°12'1116.7 220 / 111022.0 3.8 4.0
2015-May-23 07:20N 47°01' W 091°26'3 8.1
2015-May-23 07:00N 47°00' W 091°30'716.2 200 / 81022.0 3.5 4.0
2015-May-23 06:33N 46°56' W 091°39'711.9
2015-May-23 06:00N 46°54' W 091°48'613.5 250 / 41022.4 5.4 4.2
2015-May-23 05:33N 46°50' W 091°55'4 7.6
2015-May-23 05:00N 46°48' W 092°00'510.4 290 / 21022.7 7.0 8.4
2015-May-23 04:33N 46°46' W 092°06'1 1.3
2015-May-23 03:33N 46°45' W 092°07'3 4.7
2015-May-23 03:00N 46°42' W 092°06'3 4.9 090 / 41023.0 6.8 15.1
2015-May-23 02:27N 46°45' W 092°07'3 5.8
2015-May-23 02:00N 46°42' W 092°06'3 5.4 040 / 41022.4 6.9 14.8
2015-May-23 01:30N 46°45' W 092°07'3 5.2
2015-May-23 01:00N 46°42' W 092°06'3 5.3 060 / 81022.4 6.8 13.4
2015-May-23 00:30N 46°45' W 092°07'3 5.2
2015-May-23 00:00N 46°42' W 092°06'3 5.4 090 / 71022.4 7.5 13.3
2015-May-22 23:30N 46°45' W 092°07'3 5.2
2015-May-22 23:00N 46°42' W 092°06'3 3.8 070 / 81022.7 7.0 13.3
2015-May-22 22:18N 46°45' W 092°07'3 8.6
2015-May-22 22:00N 46°42' W 092°06'3 6.0 060 / 101022.7 7.3 13.8
2015-May-22 21:33N 46°45' W 092°07'3 4.8
2015-May-22 21:00N 46°42' W 092°06'3 6.0 040 / 101022.7 7.6 14.0
2015-May-22 20:33N 46°45' W 092°07'3 4.8
2015-May-22 20:00N 46°42' W 092°06'3 6.0 170 / 81023.0 8.2 13.5
2015-May-22 19:33N 46°45' W 092°07'3 4.8
2015-May-22 19:00N 46°42' W 092°06'3 7.0 080 / 81023.0 7.7 13.3
2015-May-22 18:33N 46°45' W 092°06'3 5.2
2015-May-22 18:00N 46°48' W 092°06'2 5.4 080 / 81023.7 9.5 10.6
2015-May-22 17:32N 46°46' W 092°06'2 4.5
2015-May-22 17:00N 46°48' W 092°06'2 5.6 080 / 41023.4 8.4 10.4
2015-May-22 16:33N 46°46' W 092°06'2 4.3
2015-May-22 16:00N 46°48' W 092°06'2 5.6 060 / 41023.7 8.3 10.6
2015-May-22 15:33N 46°46' W 092°06'2 4.3
2015-May-22 15:00N 46°48' W 092°06'2 5.6 040 / 41024.4 7.4 10.5
2015-May-22 14:33N 46°46' W 092°06'2 4.3
2015-May-22 14:00N 46°48' W 092°06'2 5.6 040 / 41024.4 6.8 10.7
2015-May-22 13:33N 46°46' W 092°06'2 4.3
2015-May-22 13:00N 46°48' W 092°06'2 5.6 090 / 51024.0 6.7 10.1
2015-May-22 12:33N 46°46' W 092°06'2 4.3
2015-May-22 12:00N 46°48' W 092°06'2 5.6 060 / 61023.0 8.0 9.7
2015-May-22 11:33N 46°46' W 092°06'2 4.3
2015-May-22 11:00N 46°48' W 092°06'614.4 330 / 31022.4 8.7 6.7
2015-May-22 10:33N 46°49' W 091°57'813.7
2015-May-22 10:00N 46°54' W 091°48'714.8 1022.0 4.3 3.3
2015-May-22 09:33N 46°54' W 091°38'610.3
2015-May-22 09:00N 46°54' W 091°30'818.4 340 / 51021.0 6.8 3.6
2015-May-22 08:33N 46°58' W 091°20'610.3
2015-May-22 08:00N 47°00' W 091°12'1413.7 060 / 51020.3 8.1 3.5
2015-May-22 07:00N 47°06' W 090°54'1212.3 080 / 41020.0 6.5 4.8
2015-May-22 06:00N 47°06' W 090°36'1717.4 070 / 61019.3 7.8 3.5
2015-May-22 05:00N 47°12' W 090°12'1212.2 110 / 71019.0 5.1 3.7
2015-May-22 04:00N 47°12' W 089°54'2512.6 110 / 81018.6 5.5 3.3
2015-May-22 02:00N 47°18' W 089°18'1413.6 100 / 101017.6 4.9 3.2
2015-May-22 01:00N 47°24' W 089°00'1616.2 100 / 91017.6 5.7 3.2
2015-May-22 00:00N 47°24' W 088°36'1413.6 090 / 71017.3 4.4 2.8
2015-May-21 23:00N 47°30' W 088°18'1212.2 010 / 31017.3 8.1 2.8
2015-May-21 22:00N 47°30' W 088°00'1212.2 310 / 91016.6 7.6 2.8
2015-May-21 21:00N 47°30' W 087°42'1413.6 330 / 71016.3 6.3 2.9
2015-May-21 20:00N 47°24' W 087°24'1413.6 300 / 111015.2 5.4 2.8
2015-May-21 19:00N 47°18' W 087°06'7712.9 290 / 111015.2 4.1 2.8
2015-May-21 13:00N 46°54' W 085°18'919.8 290 / 141011.2 3.8 3.0
2015-May-21 12:32N 46°50' W 085°06'5 8.4
2015-May-21 12:00N 46°48' W 085°00'817.6 230 / 91011.5 7.8 2.1
2015-May-21 11:33N 46°43' W 084°52'712.6
2015-May-21 11:00N 46°36' W 084°48'614.9 220 / 111012.2 4.9 2.1
2015-May-21 10:33N 46°32' W 084°40'4 6.6
2015-May-21 10:00N 46°30' W 084°36'711.5 160 / 61012.9 3.9 3.4
2015-May-21 09:25N 46°29' W 084°26'2 4.5
2015-May-21 09:00N 46°30' W 084°24'4 4.1 250 / 21013.5 4.0 4.6
2015-May-21 08:00N 46°30' W 084°18'0 0.0 270 / 31014.0 5.0 4.9
2015-May-21 07:00N 46°30' W 084°18'0 0.0 230 / 31014.3 5.0 4.7
2015-May-21 06:00N 46°30' W 084°18'7 7.3 220 / 21015.0 5.0 4.6
2015-May-21 05:00N 46°24' W 084°12'7 7.3 230 / 31015.4 6.2 5.0
2015-May-21 04:00N 46°18' W 084°06'6 6.0 270 / 101015.7 7.5 6.0
2015-May-21 03:00N 46°12' W 084°06'914.0 240 / 81016.4 8.0 7.3
2015-May-21 02:21N 46°04' W 084°00'616.3
2015-May-21 02:00N 46°00' W 083°54'3 7.2 250 / 81016.4 9.1 7.7
2015-May-21 01:33N 45°57' W 083°54'1313.3
2015-May-21 00:32N 45°45' W 083°44'3312.8
2015-May-20 22:00N 45°18' W 083°18'1514.7 170 / 71019.1 6.1 3.7
2015-May-20 21:00N 45°06' W 083°06'7612.7 200 / 101019.8 5.3 4.8
2015-May-20 15:00N 43°54' W 082°30'1212.0 330 / 61022.527.0 1.0 4.4 5.8
2015-May-20 14:00N 43°42' W 082°30'1212.0 340 / 91022.8 4.3 6.5
2015-May-20 13:00N 43°30' W 082°30'1312.8 340 / 91022.1 4.2 7.2
2015-May-20 12:00N 43°18' W 082°24'1212.0 310 / 81022.1 3.7 8.1
2015-May-20 11:00N 43°06' W 082°24'1312.8 340 / 121022.1 4.4 10.3
2015-May-20 10:00N 42°54' W 082°30'6 6.0 340 / 81021.5 4.2 9.3
2015-May-20 09:00N 42°48' W 082°30'1212.0 330 / 101021.5 4.3 9.2
2015-May-20 08:00N 42°36' W 082°30'1110.7 340 / 91021.5 4.8 9.5
2015-May-20 07:00N 42°30' W 082°42'1110.7 340 / 181021.3 5.1 10.3
2015-May-20 06:00N 42°24' W 082°54'1110.7 330 / 121020.9 5.7 12.3
2015-May-20 05:00N 42°18' W 083°06'6 6.0 340 / 111021.3 6.5 12.8
2015-May-20 04:00N 42°12' W 083°06'20 5.0 350 / 111020.3 8.6 13.2
2015-May-20 00:00N 41°54' W 083°18'0 0.0 1019.8 12.4 15.9
2015-May-19 23:00N 41°54' W 083°18'0 0.0 300 / 51019.5 12.5 16.6
2015-May-19 22:00N 41°54' W 083°18'0 0.0 1019.1 12.2 15.9
2015-May-19 21:00N 41°54' W 083°18'0 0.0 010 / 101019.8 12.5 15.9
2015-May-19 20:00N 41°54' W 083°18'0 0.0 010 / 31019.1 13.0 15.8
2015-May-19 19:00N 41°54' W 083°18'0 0.0 1019.5 12.1 15.8
2015-May-19 18:00N 41°54' W 083°18'0 0.0 1019.1 11.7 15.8
2015-May-19 17:00N 41°54' W 083°18'0 0.0 350 / 61019.5 11.6 15.9
2015-May-19 16:00N 41°54' W 083°18'0 0.0 1019.8 11.1 15.8
2015-May-19 15:00N 41°54' W 083°18'0 0.0 360 / 111019.1 11.1 15.9
2015-May-19 14:00N 41°54' W 083°18'0 0.0 010 / 71018.8 11.2 15.9
2015-May-19 13:00N 41°54' W 083°18'   1018.1 11.0 15.9

Dump ship's entire track history